createdAt,value
2019-02-08T00:01:37.409Z,90.95
2019-02-08T00:04:03.180Z,90.81
2019-02-08T00:06:29.033Z,90.71
2019-02-08T00:08:54.803Z,90.68
2019-02-08T00:11:20.552Z,90.56
2019-02-08T00:13:46.317Z,90.55
2019-02-08T00:16:12.068Z,90.51
2019-02-08T00:18:37.859Z,90.45
2019-02-08T00:21:03.929Z,90.21
2019-02-08T00:23:29.688Z,89.98
2019-02-08T00:25:55.471Z,89.77
2019-02-08T00:28:21.242Z,89.86
2019-02-08T00:30:47.091Z,89.87
2019-02-08T00:33:12.872Z,89.96
2019-02-08T00:35:38.623Z,90.03
2019-02-08T00:38:04.381Z,89.97
2019-02-08T00:40:30.133Z,90.09
2019-02-08T00:42:57.801Z,90.10
2019-02-08T00:45:23.578Z,90.06
2019-02-08T00:47:49.479Z,90.00
2019-02-08T00:50:35.116Z,90.16
2019-02-08T00:53:00.877Z,90.23
2019-02-08T00:55:26.752Z,90.60
2019-02-08T00:57:54.431Z,90.74
2019-02-08T01:01:01.888Z,90.99
2019-02-08T01:03:27.654Z,91.06
2019-02-08T01:05:53.405Z,91.12
2019-02-08T01:09:02.760Z,91.24
2019-02-08T01:11:28.508Z,91.64
2019-02-08T01:13:54.273Z,92.00
2019-02-08T01:16:20.050Z,92.12
2019-02-08T01:18:45.956Z,92.21
2019-02-08T01:21:11.713Z,92.23
2019-02-08T01:23:41.178Z,92.38
2019-02-08T01:26:05.340Z,92.25
2019-02-08T01:28:31.140Z,92.21
2019-02-08T01:30:56.886Z,92.01
2019-02-08T01:33:22.636Z,91.86
2019-02-08T01:35:48.397Z,91.74
2019-02-08T01:38:14.159Z,91.71
2019-02-08T01:40:39.928Z,91.60
2019-02-08T01:43:47.387Z,91.54
2019-02-08T01:46:13.136Z,91.42
2019-02-08T01:48:38.892Z,91.37
2019-02-08T01:51:04.655Z,91.37
2019-02-08T01:53:30.417Z,91.36
2019-02-08T01:55:56.211Z,91.02
2019-02-08T01:58:21.982Z,91.16
2019-02-08T02:00:47.745Z,91.20
2019-02-08T02:03:13.509Z,91.08
2019-02-08T02:06:20.946Z,91.04
2019-02-08T02:08:46.695Z,91.17
2019-02-08T02:11:12.485Z,91.23
2019-02-08T02:13:38.232Z,91.28
2019-02-08T02:16:04.231Z,91.00
2019-02-08T02:18:31.676Z,91.07
2019-02-08T02:20:57.478Z,91.26
2019-02-08T02:23:23.225Z,91.39
2019-02-08T02:25:48.990Z,91.29
2019-02-08T02:28:14.748Z,91.64
2019-02-08T02:30:40.515Z,92.09
2019-02-08T02:33:47.943Z,92.19
2019-02-08T02:36:13.711Z,92.34
2019-02-08T02:38:39.479Z,92.26
2019-02-08T02:41:05.239Z,92.25
2019-02-08T02:43:32.521Z,92.41
2019-02-08T02:45:58.692Z,92.37
2019-02-08T02:48:24.455Z,92.29
2019-02-08T02:50:50.226Z,92.31
2019-02-08T02:53:16.001Z,91.86
2019-02-08T02:55:41.913Z,91.68
2019-02-08T02:58:07.646Z,91.71
2019-02-08T03:01:15.105Z,91.62
2019-02-08T03:03:41.002Z,91.31
2019-02-08T03:06:06.783Z,91.32
2019-02-08T03:08:32.538Z,91.50
2019-02-08T03:10:58.304Z,91.58
2019-02-08T03:13:24.078Z,91.74
2019-02-08T03:15:49.871Z,91.83
2019-02-08T03:18:15.640Z,91.70
2019-02-08T03:20:41.421Z,91.63
2019-02-08T03:23:07.278Z,91.55
2019-02-08T03:28:47.122Z,91.75
2019-02-08T03:31:12.937Z,91.65
2019-02-08T03:33:38.685Z,91.61
2019-02-08T03:36:04.442Z,91.56
2019-02-08T03:38:30.211Z,91.70
2019-02-08T03:40:56.063Z,91.62
2019-02-08T03:43:21.840Z,91.56
2019-02-08T03:48:54.801Z,91.46
2019-02-08T03:51:20.557Z,91.56
2019-02-08T03:53:46.326Z,91.45
2019-02-08T03:56:12.078Z,91.48
2019-02-08T03:58:37.853Z,91.44
2019-02-08T04:03:51.129Z,91.43
2019-02-08T04:06:16.885Z,91.49
2019-02-08T04:08:42.673Z,91.37
2019-02-08T04:11:08.410Z,91.42
2019-02-08T04:13:34.181Z,91.08
2019-02-08T04:15:59.935Z,90.97
2019-02-08T04:18:25.693Z,91.04
2019-02-08T04:20:51.456Z,90.86
2019-02-08T04:23:17.238Z,90.83
2019-02-08T04:25:43.010Z,90.66
2019-02-08T04:28:08.782Z,90.74
2019-02-08T04:30:34.657Z,90.76
2019-02-08T04:33:42.103Z,90.71
2019-02-08T04:36:07.857Z,90.60
2019-02-08T04:38:33.618Z,90.79
2019-02-08T04:40:59.378Z,90.65
2019-02-08T04:43:25.179Z,90.53
2019-02-08T04:45:51.057Z,90.60
2019-02-08T04:48:18.097Z,90.55
2019-02-08T04:50:46.879Z,90.34
2019-02-08T04:53:13.043Z,90.27
2019-02-08T04:55:39.174Z,90.26
2019-02-08T04:58:05.095Z,90.35
2019-02-08T05:03:44.616Z,90.51
2019-02-08T05:06:10.378Z,90.38
2019-02-08T05:08:36.132Z,90.31
2019-02-08T05:11:01.911Z,89.94
2019-02-08T05:13:27.683Z,89.70
2019-02-08T05:15:53.445Z,89.80
2019-02-08T05:18:19.208Z,89.76
2019-02-08T05:20:44.993Z,89.61
2019-02-08T05:23:10.746Z,89.75
2019-02-08T05:25:36.510Z,89.75
2019-02-08T05:31:09.660Z,89.66
2019-02-08T05:33:35.411Z,89.75
2019-02-08T05:36:01.189Z,89.46
2019-02-08T05:38:26.925Z,89.38
2019-02-08T05:40:52.689Z,89.29
2019-02-08T05:43:18.457Z,89.38
2019-02-08T05:45:44.221Z,89.29
2019-02-08T05:48:09.977Z,89.22
2019-02-08T05:50:35.749Z,89.35
2019-02-08T05:53:01.507Z,89.39
2019-02-08T05:56:08.964Z,89.21
2019-02-08T05:58:34.717Z,89.42
2019-02-08T06:01:00.479Z,89.50
2019-02-08T06:03:26.243Z,89.58
2019-02-08T06:05:52.030Z,89.54
2019-02-08T06:08:17.870Z,89.26
2019-02-08T06:10:43.658Z,89.35
2019-02-08T06:13:09.512Z,89.27
2019-02-08T06:16:16.960Z,89.27
2019-02-08T06:18:42.816Z,89.33
2019-02-08T06:21:08.598Z,89.38
2019-02-08T06:23:34.362Z,89.74
2019-02-08T06:26:00.143Z,89.80
2019-02-08T06:28:25.904Z,89.88
2019-02-08T06:30:51.674Z,89.96
2019-02-08T06:33:17.421Z,89.87
2019-02-08T06:35:43.173Z,90.01
2019-02-08T06:38:09.036Z,89.91
2019-02-08T06:40:54.665Z,90.06
2019-02-08T06:43:20.449Z,90.36
2019-02-08T06:45:46.213Z,90.17
2019-02-08T06:48:11.988Z,90.33
2019-02-08T06:50:37.743Z,90.24
2019-02-08T06:53:03.607Z,90.43
2019-02-08T06:55:29.373Z,90.68
2019-02-08T06:58:15.339Z,90.88
2019-02-08T07:07:06.182Z,90.52
2019-02-08T07:09:51.927Z,90.21
2019-02-08T07:12:37.584Z,90.22
2019-02-08T07:21:15.454Z,89.50
2019-02-08T07:24:01.120Z,89.31
2019-02-08T07:32:07.516Z,89.27
2019-02-08T07:34:53.170Z,89.22
2019-02-08T07:38:00.594Z,88.89
2019-02-08T07:41:08.055Z,88.76
2019-02-08T07:43:53.828Z,88.53
2019-02-08T07:47:01.255Z,88.48
2019-02-08T07:50:08.702Z,88.15
2019-02-08T07:53:16.137Z,87.98
2019-02-08T07:56:23.589Z,87.78
2019-02-08T07:59:09.340Z,87.56
2019-02-08T08:02:16.791Z,87.49
2019-02-08T08:07:36.112Z,87.36
2019-02-08T08:10:43.571Z,87.09
2019-02-08T08:13:29.213Z,86.77
2019-02-08T08:16:14.881Z,86.29
2019-02-08T08:19:00.532Z,86.04
2019-02-08T08:21:46.211Z,86.02
2019-02-08T08:24:53.648Z,85.97
2019-02-08T08:28:01.096Z,86.09
2019-02-08T08:30:46.863Z,85.88
2019-02-08T08:33:54.295Z,85.75
2019-02-08T08:37:01.736Z,85.62
2019-02-08T08:40:09.163Z,85.34
2019-02-08T08:43:15.275Z,85.35
2019-02-08T08:46:22.760Z,85.39
2019-02-08T08:49:30.191Z,85.35
2019-02-08T08:52:35.729Z,85.08
2019-02-08T08:55:42.456Z,85.33
2019-02-08T08:58:49.930Z,85.10
2019-02-08T09:01:55.465Z,85.03
2019-02-08T09:05:00.993Z,85.05
2019-02-08T09:08:06.555Z,84.99
2019-02-08T09:11:13.995Z,85.06
2019-02-08T09:14:21.421Z,84.59
2019-02-08T09:17:26.959Z,84.71
2019-02-08T09:20:32.505Z,84.96
2019-02-08T09:23:38.051Z,85.12
2019-02-08T09:26:43.590Z,84.81
2019-02-08T09:29:49.122Z,84.81
2019-02-08T09:32:56.580Z,84.76
2019-02-08T09:36:04.011Z,84.74
2019-02-08T09:39:09.543Z,84.60
2019-02-08T09:42:15.083Z,84.84
2019-02-08T09:45:20.626Z,85.19
2019-02-08T09:48:26.176Z,85.77
2019-02-08T09:51:31.693Z,85.76
2019-02-08T09:54:39.139Z,85.93
2019-02-08T09:57:46.588Z,85.74
2019-02-08T10:00:52.112Z,86.74
2019-02-08T10:03:57.646Z,86.97
2019-02-08T10:07:03.182Z,86.75
2019-02-08T10:10:10.634Z,86.85
2019-02-08T10:13:16.155Z,87.06
2019-02-08T10:16:21.683Z,86.61
2019-02-08T10:19:27.225Z,86.87
2019-02-08T10:22:34.668Z,86.78
2019-02-08T10:25:40.205Z,86.84
2019-02-08T10:28:45.756Z,87.13
2019-02-08T10:31:53.188Z,86.91
2019-02-08T10:34:58.712Z,86.94
2019-02-08T10:38:04.269Z,86.95
2019-02-08T10:41:11.694Z,87.50
2019-02-08T10:44:17.222Z,87.72
2019-02-08T10:47:22.744Z,87.75
2019-02-08T10:50:28.323Z,87.84
2019-02-08T10:53:33.810Z,88.03
2019-02-08T10:56:39.355Z,87.97
2019-02-08T10:59:44.897Z,87.93
2019-02-08T11:02:52.358Z,88.93
2019-02-08T11:05:59.785Z,89.11
2019-02-08T11:09:05.307Z,89.20
2019-02-08T11:12:10.845Z,89.17
2019-02-08T11:15:16.395Z,88.92
2019-02-08T11:18:21.909Z,89.01
2019-02-08T11:20:47.694Z,89.20
2019-02-08T11:23:13.457Z,89.25
2019-02-08T11:25:39.221Z,89.23
2019-02-08T11:28:04.979Z,89.07
2019-02-08T11:30:30.739Z,88.96
2019-02-08T11:32:56.499Z,88.89
2019-02-08T11:35:22.307Z,88.89
2019-02-08T11:37:48.071Z,88.86
2019-02-08T11:40:33.718Z,88.94
2019-02-08T11:42:59.487Z,89.00
2019-02-08T11:45:25.339Z,89.38
2019-02-08T11:47:51.110Z,89.60
2019-02-08T11:50:58.561Z,89.59
2019-02-08T11:53:24.320Z,89.53
2019-02-08T11:55:50.091Z,89.93
2019-02-08T11:58:15.951Z,90.10
2019-02-08T12:03:19.995Z,91.01
2019-02-08T12:05:45.763Z,91.62
2019-02-08T12:08:11.629Z,91.69
2019-02-08T12:10:37.391Z,91.82
2019-02-08T12:13:44.862Z,91.81
2019-02-08T12:16:10.941Z,91.75
2019-02-08T12:18:36.884Z,91.67
2019-02-08T12:21:02.788Z,91.66
2019-02-08T12:23:28.886Z,91.73
2019-02-08T12:25:54.801Z,91.89
2019-02-08T12:28:20.818Z,91.88
2019-02-08T12:30:46.742Z,91.92
2019-02-08T12:33:12.510Z,92.04
2019-02-08T12:35:38.431Z,92.02
2019-02-08T12:38:04.198Z,91.86
2019-02-08T12:40:30.208Z,91.92
2019-02-08T12:42:56.262Z,92.06
2019-02-08T12:48:49.168Z,91.89
2019-02-08T12:51:15.038Z,91.90
2019-02-08T12:53:40.839Z,91.93
2019-02-08T12:56:06.688Z,91.94
2019-02-08T12:58:33.129Z,91.90
2019-02-08T13:00:58.886Z,92.07
2019-02-08T13:03:24.713Z,91.94
2019-02-08T13:05:50.469Z,91.91
2019-02-08T13:08:16.293Z,92.07
2019-02-08T13:10:42.219Z,92.02
2019-02-08T13:13:07.987Z,91.99
2019-02-08T13:15:33.760Z,92.18
2019-02-08T13:17:59.526Z,92.42
2019-02-08T13:20:25.350Z,92.50
2019-02-08T13:22:51.105Z,92.59
2019-02-08T13:25:58.583Z,92.75
2019-02-08T13:28:24.353Z,92.99
2019-02-08T13:30:50.100Z,92.99
2019-02-08T13:33:16.584Z,93.14
2019-02-08T13:35:43.530Z,93.31
2019-02-08T13:38:09.292Z,93.34
2019-02-08T13:40:35.060Z,93.43
2019-02-08T13:43:00.923Z,93.46
2019-02-08T13:46:08.365Z,93.43
2019-02-08T13:48:34.126Z,93.41
2019-02-08T13:50:59.907Z,93.67
2019-02-08T13:53:25.661Z,93.51
2019-02-08T13:55:51.439Z,93.56
2019-02-08T13:58:17.189Z,93.44
2019-02-08T14:00:43.086Z,93.42
2019-02-08T14:03:08.842Z,93.42
2019-02-08T14:05:34.611Z,93.40
2019-02-08T14:08:00.368Z,93.27
2019-02-08T14:10:26.164Z,93.29
2019-02-08T14:12:52.012Z,93.23
2019-02-08T14:15:59.473Z,93.05
2019-02-08T14:18:25.226Z,93.04
2019-02-08T14:20:51.015Z,92.92
2019-02-08T14:23:16.766Z,92.74
2019-02-08T14:25:42.532Z,92.60
2019-02-08T14:28:08.303Z,92.46
2019-02-08T14:31:15.772Z,92.32
2019-02-08T14:33:41.533Z,92.17
2019-02-08T14:36:07.367Z,91.92
2019-02-08T14:38:33.166Z,91.73
2019-02-08T14:40:58.936Z,91.64
2019-02-08T14:43:24.710Z,91.38
2019-02-08T14:45:50.473Z,91.43
2019-02-08T14:48:16.243Z,91.26
2019-02-08T14:50:42.013Z,91.14
2019-02-08T14:53:07.780Z,91.08
2019-02-08T14:55:33.530Z,90.76
2019-02-08T14:58:40.963Z,90.71
2019-02-08T15:01:06.731Z,90.83
2019-02-08T15:03:32.489Z,90.91
2019-02-08T15:05:58.264Z,91.06
2019-02-08T15:08:24.028Z,91.28
2019-02-08T15:14:03.511Z,90.82
2019-02-08T15:16:29.279Z,90.75
2019-02-08T15:18:55.045Z,90.52
2019-02-08T15:21:20.828Z,90.41
2019-02-08T15:23:46.581Z,90.58
2019-02-08T15:26:12.333Z,90.15
2019-02-08T15:28:38.117Z,90.15
2019-02-08T15:31:04.102Z,90.30
2019-02-08T15:33:29.870Z,90.13
2019-02-08T15:35:55.634Z,90.13
2019-02-08T15:38:21.413Z,89.97
2019-02-08T15:41:28.845Z,90.29
2019-02-08T15:43:54.615Z,90.31
2019-02-08T15:46:20.465Z,90.48
2019-02-08T15:48:46.332Z,90.66
2019-02-08T15:51:12.112Z,90.78
2019-02-08T15:53:37.878Z,90.65
2019-02-08T15:56:45.313Z,90.93
2019-02-08T15:59:11.087Z,90.88
2019-02-08T16:01:36.852Z,91.09
2019-02-08T16:04:44.321Z,91.18
2019-02-08T16:07:11.609Z,91.49
2019-02-08T16:09:37.768Z,91.49
2019-02-08T16:12:03.623Z,91.63
2019-02-08T16:14:29.392Z,92.02
2019-02-08T16:16:55.156Z,92.12
2019-02-08T16:19:20.919Z,92.14
2019-02-08T16:21:46.689Z,92.39
2019-02-08T16:24:12.460Z,92.37
2019-02-08T16:26:38.222Z,92.51
2019-02-08T16:32:17.255Z,92.72
2019-02-08T16:34:43.133Z,93.01
2019-02-08T16:37:08.902Z,93.03
2019-02-08T16:39:34.678Z,93.12
2019-02-08T16:42:00.451Z,93.21
2019-02-08T16:44:26.227Z,93.24
2019-02-08T16:46:51.988Z,93.36
2019-02-08T16:49:17.763Z,93.57
2019-02-08T16:51:43.511Z,93.58
2019-02-08T16:54:09.273Z,93.90
2019-02-08T16:56:35.050Z,93.90
2019-02-08T16:59:00.807Z,94.00
2019-02-08T17:01:26.570Z,94.01
2019-02-08T17:03:52.344Z,94.10
2019-02-08T17:06:18.103Z,94.13
2019-02-08T17:08:43.867Z,94.12
2019-02-08T17:11:09.636Z,94.19
2019-02-08T17:13:35.400Z,94.13
2019-02-08T17:16:01.279Z,94.10
2019-02-08T17:18:27.024Z,94.14
2019-02-08T17:20:52.903Z,93.98
2019-02-08T17:23:18.667Z,93.96
2019-02-08T17:25:44.442Z,93.89
2019-02-08T17:28:10.298Z,93.67
2019-02-08T17:30:36.162Z,93.56
2019-02-08T17:33:02.027Z,93.26
2019-02-08T17:36:09.503Z,93.25
2019-02-08T17:38:35.698Z,93.10
2019-02-08T17:41:44.613Z,93.17
2019-02-08T17:44:10.380Z,92.89
2019-02-08T17:46:36.154Z,92.49
2019-02-08T17:49:01.903Z,92.24
2019-02-08T17:51:27.679Z,91.66
2019-02-08T17:53:53.432Z,91.39
2019-02-08T17:56:19.204Z,91.39
2019-02-08T17:58:44.961Z,91.27
2019-02-08T18:01:10.719Z,91.06
2019-02-08T18:03:36.473Z,90.94
2019-02-08T18:06:02.240Z,90.64
2019-02-08T18:08:28.004Z,90.43
2019-02-08T18:10:53.877Z,89.94
2019-02-08T18:13:19.731Z,89.54
2019-02-08T18:15:45.476Z,89.57
2019-02-08T18:18:52.921Z,89.14
2019-02-08T18:21:18.722Z,88.76
2019-02-08T18:23:44.478Z,88.19
2019-02-08T18:26:10.242Z,87.97
2019-02-08T18:28:36.008Z,87.82
2019-02-08T18:31:01.770Z,87.80
2019-02-08T18:33:27.538Z,87.61
2019-02-08T18:35:53.302Z,87.20
2019-02-08T18:38:19.126Z,87.07
2019-02-08T18:40:44.878Z,86.74
2019-02-08T18:43:10.648Z,86.71
2019-02-08T18:45:36.435Z,86.58
2019-02-08T18:48:43.879Z,85.94
2019-02-08T18:51:09.643Z,85.90
2019-02-08T18:53:35.421Z,85.70
2019-02-08T18:56:01.174Z,85.52
2019-02-08T18:58:26.941Z,85.31
2019-02-08T19:01:34.404Z,85.33
2019-02-08T19:04:00.172Z,84.96
2019-02-08T19:06:25.929Z,84.47
2019-02-08T19:08:51.700Z,84.47
2019-02-08T19:11:17.464Z,83.96
2019-02-08T19:13:43.238Z,84.14
2019-02-08T19:16:08.999Z,84.34
2019-02-08T19:18:34.772Z,84.06
2019-02-08T19:21:00.546Z,83.97
2019-02-08T19:23:26.322Z,83.62
2019-02-08T19:25:52.073Z,83.16
2019-02-08T19:28:17.842Z,83.45
2019-02-08T19:30:43.795Z,82.95
2019-02-08T19:33:09.570Z,83.15
2019-02-08T19:35:35.323Z,82.83
2019-02-08T19:38:42.774Z,82.81
2019-02-08T19:41:08.526Z,82.73
2019-02-08T19:43:34.293Z,82.63
2019-02-08T19:46:00.048Z,82.45
2019-02-08T19:48:25.821Z,82.41
2019-02-08T19:50:51.571Z,82.26
2019-02-08T19:53:17.330Z,82.13
2019-02-08T19:55:43.075Z,81.80
2019-02-08T19:58:50.526Z,82.04
2019-02-08T20:01:16.288Z,82.12
2019-02-08T20:03:42.058Z,82.13
2019-02-08T20:06:07.817Z,82.42
2019-02-08T20:08:33.620Z,82.31
2019-02-08T20:10:59.389Z,81.81
2019-02-08T20:13:25.159Z,81.91
2019-02-08T20:15:50.915Z,81.85
2019-02-08T20:18:16.664Z,81.87
2019-02-08T20:20:42.441Z,81.80
2019-02-08T20:23:08.205Z,81.82
2019-02-08T20:26:15.648Z,81.81
2019-02-08T20:28:42.650Z,81.74
2019-02-08T20:31:09.097Z,81.67
2019-02-08T20:33:34.851Z,81.32
2019-02-08T20:36:00.615Z,81.11
2019-02-08T20:38:26.376Z,80.82
2019-02-08T20:40:52.137Z,80.77
2019-02-08T20:43:17.899Z,80.88
2019-02-08T20:45:43.674Z,81.13
2019-02-08T20:48:51.103Z,80.98
2019-02-08T20:51:16.878Z,81.01
2019-02-08T20:53:42.628Z,81.25
2019-02-08T20:56:08.494Z,80.95
2019-02-08T21:01:21.575Z,80.61
2019-02-08T21:03:47.328Z,80.73
2019-02-08T21:06:13.095Z,80.48
2019-02-08T21:08:38.855Z,80.32
2019-02-08T21:11:04.616Z,80.57
2019-02-08T21:13:30.369Z,80.34
2019-02-08T21:15:56.138Z,80.25
2019-02-08T21:18:21.899Z,80.00
2019-02-08T21:20:47.922Z,80.29
2019-02-08T21:23:13.653Z,80.09
2019-02-08T21:26:21.102Z,80.09
2019-02-08T21:28:46.868Z,79.81
2019-02-08T21:31:12.643Z,79.64
2019-02-08T21:33:38.402Z,79.48
2019-02-08T21:36:04.273Z,79.37
2019-02-08T21:38:30.030Z,79.06
2019-02-08T21:40:55.795Z,79.31
2019-02-08T21:43:21.552Z,79.37
2019-02-08T21:45:47.326Z,79.58
2019-02-08T21:48:13.087Z,79.32
2019-02-08T21:50:38.950Z,79.33
2019-02-08T21:53:04.808Z,79.40
2019-02-08T21:55:30.659Z,79.19
2019-02-08T21:57:56.538Z,79.28
2019-02-08T22:03:36.331Z,79.14
2019-02-08T22:06:43.772Z,79.23
2019-02-08T22:09:09.525Z,79.14
2019-02-08T22:11:35.293Z,78.96
2019-02-08T22:14:01.056Z,79.03
2019-02-08T22:16:26.821Z,78.70
2019-02-08T22:18:52.577Z,79.28
2019-02-08T22:21:18.359Z,79.17
2019-02-08T22:23:44.116Z,79.06
2019-02-08T22:26:09.881Z,78.94
2019-02-08T22:28:35.647Z,79.31
2019-02-08T22:31:01.542Z,79.08
2019-02-08T22:33:27.298Z,79.07
2019-02-08T22:36:00.509Z,78.73
2019-02-08T22:38:26.277Z,79.04
2019-02-08T22:40:52.050Z,79.15
2019-02-08T22:43:17.924Z,79.47
2019-02-08T22:45:43.688Z,79.89
2019-02-08T22:48:51.124Z,80.81
2019-02-08T22:51:16.869Z,81.06
2019-02-08T22:53:42.633Z,80.83
2019-02-08T22:56:08.408Z,80.82
2019-02-08T22:58:34.179Z,81.08
2019-02-08T23:01:41.604Z,81.37
2019-02-08T23:04:07.380Z,81.55
2019-02-08T23:06:33.133Z,81.99
2019-02-08T23:08:58.909Z,82.03
2019-02-08T23:11:24.769Z,82.18
2019-02-08T23:13:50.642Z,81.97
2019-02-08T23:16:16.401Z,82.42
2019-02-08T23:18:42.160Z,82.81
2019-02-08T23:21:07.930Z,83.49
2019-02-08T23:23:33.702Z,84.00
2019-02-08T23:25:59.461Z,84.04
2019-02-08T23:28:25.237Z,84.20
2019-02-08T23:30:51.005Z,84.78
2019-02-08T23:33:16.770Z,85.39
2019-02-08T23:35:43.271Z,85.88
2019-02-08T23:38:10.216Z,86.06
2019-02-08T23:40:35.971Z,86.72
2019-02-08T23:43:01.736Z,87.46
2019-02-08T23:45:27.606Z,87.91
2019-02-08T23:47:53.378Z,88.04
2019-02-08T23:51:00.803Z,88.27
2019-02-08T23:53:26.571Z,88.26
2019-02-08T23:55:52.330Z,88.56
2019-02-08T23:58:18.099Z,88.33
